createdAt,value
2022-10-01T00:02:09.300Z,20.13
2022-10-01T00:04:38.078Z,18.67
2022-10-01T00:07:10.775Z,18.43
2022-10-01T00:09:38.707Z,19.37
2022-10-01T00:12:08.246Z,18.70
2022-10-01T00:14:39.030Z,18.80
2022-10-01T00:17:06.808Z,19.27
2022-10-01T00:19:34.644Z,19.60
2022-10-01T00:22:02.442Z,19.50
2022-10-01T00:24:31.890Z,19.00
2022-10-01T00:27:00.482Z,20.27
2022-10-01T00:29:28.283Z,20.93
2022-10-01T00:31:57.176Z,19.07
2022-10-01T00:34:25.166Z,19.20
2022-10-01T00:36:53.013Z,19.30
2022-10-01T00:39:20.768Z,19.70
2022-10-01T00:41:52.608Z,19.57
2022-10-01T00:44:33.089Z,20.00
2022-10-01T00:47:07.166Z,18.90
2022-10-01T00:49:38.864Z,19.97
2022-10-01T00:52:10.159Z,19.50
2022-10-01T00:54:43.471Z,18.33
2022-10-01T00:57:15.692Z,18.00
2022-10-01T00:59:44.190Z,20.00
2022-10-01T01:02:12.368Z,18.97
2022-10-01T01:04:41.301Z,18.20
2022-10-01T01:07:10.568Z,18.87
2022-10-01T01:09:43.269Z,18.27
2022-10-01T01:12:24.694Z,16.70
2022-10-01T01:15:03.037Z,18.50
2022-10-01T01:17:36.151Z,18.37
2022-10-01T01:20:28.773Z,18.47
2022-10-01T01:23:07.287Z,18.10
2022-10-01T01:25:45.123Z,18.50
2022-10-01T01:28:22.796Z,19.00
2022-10-01T01:30:55.899Z,17.33
2022-10-01T01:33:27.025Z,20.30
2022-10-01T01:35:58.555Z,19.77
2022-10-01T01:38:32.165Z,18.60
2022-10-01T01:41:02.931Z,19.60
2022-10-01T01:43:35.669Z,20.63
2022-10-01T01:46:06.952Z,18.80
2022-10-01T01:48:36.951Z,20.60
2022-10-01T01:51:11.145Z,20.57
2022-10-01T01:53:39.437Z,20.23
2022-10-01T01:56:08.431Z,19.50
2022-10-01T01:58:38.997Z,19.47
2022-10-01T02:01:06.904Z,19.80
2022-10-01T02:03:36.225Z,19.67
2022-10-01T02:06:14.237Z,20.67
2022-10-01T02:08:50.748Z,19.70
2022-10-01T02:11:26.965Z,21.37
2022-10-01T02:14:13.437Z,20.77
2022-10-01T02:16:49.132Z,21.47
2022-10-01T02:19:24.533Z,20.80
2022-10-01T02:21:59.641Z,19.90
2022-10-01T02:24:36.056Z,21.50
2022-10-01T02:27:09.380Z,20.13
2022-10-01T02:29:40.326Z,18.60
2022-10-01T02:32:10.502Z,21.20
2022-10-01T02:34:40.037Z,19.43
2022-10-01T02:37:10.989Z,19.77
2022-10-01T02:39:41.921Z,20.73
2022-10-01T02:42:13.593Z,20.60
2022-10-01T02:44:46.018Z,19.93
2022-10-01T02:47:19.475Z,19.97
2022-10-01T02:49:48.470Z,19.20
2022-10-01T02:52:23.681Z,19.50
2022-10-01T02:54:56.114Z,19.07
2022-10-01T02:57:23.416Z,19.17
2022-10-01T02:59:53.014Z,19.73
2022-10-01T03:02:21.856Z,20.53
2022-10-01T03:04:49.684Z,19.93
2022-10-01T03:07:18.540Z,19.57
2022-10-01T03:09:46.399Z,20.50
2022-10-01T03:12:14.485Z,20.27
2022-10-01T03:14:42.341Z,21.17
2022-10-01T03:17:12.132Z,20.20
2022-10-01T03:19:40.274Z,19.67
2022-10-01T03:22:08.241Z,20.63
2022-10-01T03:24:36.189Z,19.43
2022-10-01T03:27:04.101Z,19.43
2022-10-01T03:29:32.062Z,18.17
2022-10-01T03:31:59.835Z,17.87
2022-10-01T03:34:29.264Z,19.93
2022-10-01T03:36:57.096Z,18.30
2022-10-01T03:39:24.997Z,19.80
2022-10-01T03:41:52.818Z,20.10
2022-10-01T03:44:20.598Z,19.83
2022-10-01T03:46:48.782Z,19.87
2022-10-01T03:49:17.021Z,20.07
2022-10-01T03:51:46.219Z,18.97
2022-10-01T03:54:14.020Z,19.20
2022-10-01T03:56:42.582Z,18.00
2022-10-01T03:59:11.036Z,18.17
2022-10-01T04:01:39.477Z,19.27
2022-10-01T04:04:07.788Z,20.00
2022-10-01T04:06:35.612Z,19.23
2022-10-01T04:09:05.233Z,19.53
2022-10-01T04:11:33.313Z,19.77
2022-10-01T04:14:01.356Z,18.73
2022-10-01T04:16:29.406Z,17.80
2022-10-01T04:18:57.254Z,19.30
2022-10-01T04:21:25.176Z,21.20
2022-10-01T04:23:53.350Z,27.53
2022-10-01T04:26:22.693Z,21.40
2022-10-01T04:28:50.515Z,19.03
2022-10-01T04:31:27.667Z,18.90
2022-10-01T04:33:58.466Z,19.27
2022-10-01T04:36:26.981Z,19.10
2022-10-01T04:39:00.818Z,19.23
2022-10-01T04:41:32.023Z,19.93
2022-10-01T04:44:00.724Z,17.20
2022-10-01T04:46:29.556Z,17.33
2022-10-01T04:48:57.597Z,17.73
2022-10-01T04:51:25.545Z,18.87
2022-10-01T04:53:53.394Z,18.53
2022-10-01T04:56:21.235Z,17.57
2022-10-01T04:58:50.375Z,24.20
2022-10-01T05:01:18.236Z,19.27
2022-10-01T05:03:46.658Z,17.77
2022-10-01T05:06:14.577Z,18.83
2022-10-01T05:08:42.448Z,19.20
2022-10-01T05:11:10.269Z,18.97
2022-10-01T05:13:38.132Z,16.10
2022-10-01T05:16:08.568Z,18.30
2022-10-01T05:18:36.459Z,16.70
2022-10-01T05:21:06.526Z,17.10
2022-10-01T05:23:34.785Z,16.97
2022-10-01T05:26:05.614Z,18.13
2022-10-01T05:28:34.084Z,15.37
2022-10-01T05:31:02.661Z,15.00
2022-10-01T05:33:34.061Z,14.47
2022-10-01T05:36:03.246Z,15.73
2022-10-01T05:38:31.111Z,15.37
2022-10-01T05:40:58.860Z,17.37
2022-10-01T05:43:27.039Z,16.73
2022-10-01T05:45:54.891Z,15.77
2022-10-01T05:48:22.828Z,16.00
2022-10-01T05:50:51.957Z,13.50
2022-10-01T05:53:19.787Z,14.50
2022-10-01T05:55:47.616Z,14.40
2022-10-01T05:58:15.516Z,16.17
2022-10-01T06:00:44.138Z,14.97
2022-10-01T06:03:13.604Z,13.53
2022-10-01T06:05:41.627Z,15.50
2022-10-01T06:08:10.748Z,15.40
2022-10-01T06:10:39.013Z,16.00
2022-10-01T06:13:07.479Z,15.13
2022-10-01T06:15:38.339Z,15.60
2022-10-01T06:18:07.495Z,15.50
2022-10-01T06:20:36.261Z,13.70
2022-10-01T06:23:05.828Z,15.30
2022-10-01T06:25:36.432Z,15.17
2022-10-01T06:28:05.884Z,14.93
2022-10-01T06:30:36.767Z,15.67
2022-10-01T06:33:06.913Z,14.93
2022-10-01T06:35:36.217Z,15.40
2022-10-01T06:38:04.709Z,13.80
2022-10-01T06:40:32.891Z,14.23
2022-10-01T06:43:02.045Z,15.50
2022-10-01T06:45:32.373Z,14.40
2022-10-01T06:48:02.942Z,14.10
2022-10-01T06:50:32.407Z,14.43
2022-10-01T06:53:01.285Z,14.23
2022-10-01T06:55:31.286Z,14.80
2022-10-01T06:58:00.808Z,14.97
2022-10-01T07:00:32.397Z,14.20
2022-10-01T07:03:01.046Z,12.37
2022-10-01T07:05:29.184Z,13.40
2022-10-01T07:07:57.129Z,13.40
2022-10-01T07:10:25.432Z,13.47
2022-10-01T07:12:53.351Z,13.40
2022-10-01T07:15:23.540Z,13.90
2022-10-01T07:17:53.403Z,12.33
2022-10-01T07:20:21.993Z,13.20
2022-10-01T07:22:50.395Z,13.80
2022-10-01T07:25:18.198Z,13.63
2022-10-01T07:27:46.081Z,15.00
2022-10-01T07:30:13.968Z,14.70
2022-10-01T07:32:45.813Z,14.40
2022-10-01T07:35:16.299Z,10.77
2022-10-01T07:37:44.089Z,13.70
2022-10-01T07:40:12.268Z,13.47
2022-10-01T07:42:41.057Z,12.80
2022-10-01T07:45:10.285Z,12.90
2022-10-01T07:47:38.120Z,14.30
2022-10-01T07:50:07.041Z,12.33
2022-10-01T07:52:36.259Z,13.73
2022-10-01T07:55:04.044Z,12.83
2022-10-01T07:57:34.156Z,13.37
2022-10-01T08:00:02.398Z,13.10
2022-10-01T08:02:40.148Z,12.40
2022-10-01T08:05:18.877Z,13.13
2022-10-01T08:07:48.557Z,13.70
2022-10-01T08:10:18.525Z,13.23
2022-10-01T08:12:47.083Z,20.73
2022-10-01T08:15:16.500Z,35.13
2022-10-01T08:17:45.169Z,24.33
2022-10-01T08:20:14.830Z,15.90
2022-10-01T08:22:42.767Z,13.70
2022-10-01T08:25:12.063Z,16.03
2022-10-01T08:27:39.887Z,14.43
2022-10-01T08:30:09.061Z,18.00
2022-10-01T08:32:37.052Z,15.27
2022-10-01T08:35:05.802Z,14.93
2022-10-01T08:37:34.164Z,13.00
2022-10-01T08:40:02.480Z,10.50
2022-10-01T08:42:49.577Z,11.70
2022-10-01T08:45:22.740Z,11.40
2022-10-01T08:47:57.886Z,12.43
2022-10-01T08:50:41.054Z,12.37
2022-10-01T08:53:29.844Z,13.77
2022-10-01T08:55:59.473Z,12.70
2022-10-01T08:58:34.866Z,12.90
2022-10-01T09:01:02.796Z,11.57
2022-10-01T09:03:32.457Z,12.07
2022-10-01T09:06:09.644Z,10.50
2022-10-01T09:08:50.258Z,9.37
2022-10-01T09:11:37.404Z,9.83
2022-10-01T09:14:20.025Z,8.83
2022-10-01T09:16:56.664Z,8.77
2022-10-01T09:19:40.720Z,8.87
2022-10-01T09:22:26.061Z,12.60
2022-10-01T09:25:01.760Z,8.87
2022-10-01T09:27:29.708Z,7.10
2022-10-01T09:30:02.103Z,5.50
2022-10-01T09:32:34.785Z,6.67
2022-10-01T09:35:13.838Z,5.73
2022-10-01T09:37:50.433Z,6.00
2022-10-01T09:40:26.284Z,5.93
2022-10-01T09:42:54.259Z,5.53
2022-10-01T09:45:24.568Z,6.30
2022-10-01T09:47:55.755Z,6.17
2022-10-01T09:50:32.201Z,5.80
2022-10-01T09:53:01.408Z,6.17
2022-10-01T09:55:33.805Z,6.23
2022-10-01T09:58:05.680Z,5.60
2022-10-01T10:00:37.516Z,5.90
2022-10-01T10:03:05.484Z,4.87
2022-10-01T10:05:42.713Z,3.87
2022-10-01T10:08:14.405Z,4.70
2022-10-01T10:10:51.654Z,3.60
2022-10-01T10:13:26.503Z,3.33
2022-10-01T10:15:58.495Z,4.00
2022-10-01T10:18:30.356Z,3.33
2022-10-01T10:21:00.277Z,3.00
2022-10-01T10:23:29.364Z,2.80
2022-10-01T10:26:00.761Z,2.93
2022-10-01T10:28:30.454Z,2.97
2022-10-01T10:30:59.895Z,2.87
2022-10-01T10:33:27.804Z,3.47
2022-10-01T10:36:01.229Z,2.70
2022-10-01T10:38:32.535Z,2.90
2022-10-01T10:41:01.132Z,5.63
2022-10-01T10:43:34.069Z,2.80
2022-10-01T10:46:04.092Z,2.67
2022-10-01T10:48:36.305Z,2.90
2022-10-01T10:51:06.212Z,2.97
2022-10-01T10:53:43.902Z,3.60
2022-10-01T10:56:22.575Z,9.63
2022-10-01T10:58:51.477Z,4.00
2022-10-01T11:01:29.368Z,3.40
2022-10-01T11:04:00.794Z,3.40
2022-10-01T11:06:30.294Z,3.50
2022-10-01T11:09:01.409Z,3.00
2022-10-01T11:11:44.600Z,3.57
2022-10-01T11:14:25.616Z,3.70
2022-10-01T11:17:13.834Z,3.20
2022-10-01T11:19:54.370Z,3.23
2022-10-01T11:22:42.240Z,3.40
2022-10-01T11:25:26.798Z,3.90
2022-10-01T11:28:07.203Z,3.30
2022-10-01T11:30:42.949Z,3.70
2022-10-01T11:33:27.177Z,4.23
2022-10-01T11:36:01.344Z,4.23
2022-10-01T11:38:49.303Z,4.93
2022-10-01T11:41:32.114Z,4.20
2022-10-01T11:44:06.152Z,5.10
2022-10-01T11:46:48.743Z,4.37
2022-10-01T11:49:30.008Z,4.20
2022-10-01T11:52:08.434Z,4.40
2022-10-01T11:54:47.748Z,4.50
2022-10-01T11:57:34.192Z,4.37
2022-10-01T12:00:07.114Z,4.10
2022-10-01T12:02:49.351Z,4.97
2022-10-01T12:05:22.472Z,4.83
2022-10-01T12:07:55.153Z,4.60
2022-10-01T12:10:39.455Z,5.00
2022-10-01T12:13:17.723Z,4.67
2022-10-01T12:15:51.041Z,4.77
2022-10-01T12:18:25.129Z,5.10
2022-10-01T12:20:58.162Z,4.87
2022-10-01T12:23:30.683Z,4.43
2022-10-01T12:26:06.300Z,4.47
2022-10-01T12:28:40.516Z,4.40
2022-10-01T12:31:17.654Z,4.50
2022-10-01T12:34:07.037Z,4.33
2022-10-01T12:36:49.795Z,4.93
2022-10-01T12:39:34.173Z,4.70
2022-10-01T12:42:15.728Z,4.90
2022-10-01T12:44:56.499Z,4.97
2022-10-01T12:47:38.212Z,4.97
2022-10-01T12:50:22.067Z,5.27
2022-10-01T12:53:04.573Z,4.83
2022-10-01T12:55:52.278Z,5.50
2022-10-01T12:58:37.382Z,5.40
2022-10-01T13:01:19.688Z,5.67
2022-10-01T13:04:17.181Z,5.93
2022-10-01T13:06:56.492Z,7.10
2022-10-01T13:09:36.287Z,6.93
2022-10-01T13:12:17.966Z,8.03
2022-10-01T13:14:47.281Z,8.70
2022-10-01T13:17:24.825Z,8.83
2022-10-01T13:19:59.582Z,8.30
2022-10-01T13:22:36.996Z,7.60
2022-10-01T13:25:23.070Z,7.60
2022-10-01T13:27:59.241Z,8.47
2022-10-01T13:30:32.467Z,7.90
2022-10-01T13:33:01.825Z,7.00
2022-10-01T13:35:35.746Z,6.97
2022-10-01T13:38:14.963Z,6.57
2022-10-01T13:40:45.220Z,6.60
2022-10-01T13:43:19.058Z,6.67
2022-10-01T13:45:49.132Z,8.63
2022-10-01T13:48:20.947Z,7.87
2022-10-01T13:50:58.083Z,7.80
2022-10-01T13:53:29.702Z,8.00
2022-10-01T13:55:59.055Z,8.47
2022-10-01T13:58:36.601Z,9.27
2022-10-01T14:01:10.165Z,9.73
2022-10-01T14:03:52.271Z,9.90
2022-10-01T14:06:25.573Z,13.30
2022-10-01T14:09:00.363Z,13.97
2022-10-01T14:11:51.553Z,18.97
2022-10-01T14:14:40.947Z,14.23
2022-10-01T14:17:10.281Z,13.30
2022-10-01T14:19:45.218Z,14.27
2022-10-01T14:22:24.361Z,13.60
2022-10-01T14:25:22.360Z,14.53
2022-10-01T14:28:06.380Z,13.60
2022-10-01T14:30:40.813Z,14.53
2022-10-01T14:33:24.689Z,14.07
2022-10-01T14:35:59.448Z,14.33
2022-10-01T14:38:27.365Z,13.93
2022-10-01T14:40:55.572Z,13.80
2022-10-01T14:43:26.836Z,14.93
2022-10-01T14:45:58.031Z,15.57
2022-10-01T14:48:27.252Z,15.30
2022-10-01T14:50:56.648Z,15.03
2022-10-01T14:53:26.908Z,14.93
2022-10-01T14:55:57.633Z,15.37
2022-10-01T14:58:31.749Z,15.87
2022-10-01T15:01:01.448Z,17.37
2022-10-01T15:03:37.777Z,16.37
2022-10-01T15:06:12.945Z,16.20
2022-10-01T15:08:42.458Z,20.10
2022-10-01T15:11:14.193Z,18.27
2022-10-01T15:13:46.131Z,16.50
2022-10-01T15:16:17.217Z,15.63
2022-10-01T15:18:49.085Z,16.33
2022-10-01T15:21:20.472Z,16.07
2022-10-01T15:23:49.744Z,15.27
2022-10-01T15:26:23.325Z,16.53
2022-10-01T15:29:02.895Z,15.90
2022-10-01T15:31:31.282Z,17.80
2022-10-01T15:34:01.824Z,16.87
2022-10-01T15:36:30.182Z,16.90
2022-10-01T15:38:58.720Z,17.73
2022-10-01T15:41:32.558Z,15.50
2022-10-01T15:44:05.085Z,15.03
2022-10-01T15:46:35.305Z,15.63
2022-10-01T15:49:17.024Z,15.23
2022-10-01T15:52:10.173Z,15.30
2022-10-01T15:54:38.860Z,18.20
2022-10-01T15:57:07.837Z,15.57
2022-10-01T15:59:40.618Z,16.50
2022-10-01T16:02:15.079Z,15.23
2022-10-01T16:04:42.979Z,16.57
2022-10-01T16:07:20.499Z,15.53
2022-10-01T16:09:58.221Z,15.20
2022-10-01T16:12:28.948Z,15.10
2022-10-01T16:15:02.138Z,16.87
2022-10-01T16:17:32.413Z,15.93
2022-10-01T16:20:02.953Z,17.80
2022-10-01T16:22:32.985Z,16.40
2022-10-01T16:25:02.641Z,15.10
2022-10-01T16:27:35.563Z,17.00
2022-10-01T16:30:12.926Z,16.10
2022-10-01T16:32:40.807Z,16.03
2022-10-01T16:35:21.036Z,16.03
2022-10-01T16:37:50.268Z,17.20
2022-10-01T16:40:18.596Z,20.63
2022-10-01T16:42:49.353Z,16.10
2022-10-01T16:45:22.427Z,18.03
2022-10-01T16:47:50.245Z,17.30
2022-10-01T16:50:21.384Z,16.30
2022-10-01T16:52:52.702Z,18.03
2022-10-01T16:55:24.100Z,17.53
2022-10-01T16:57:53.537Z,18.90
2022-10-01T17:00:25.086Z,17.03
2022-10-01T17:02:53.093Z,18.60
2022-10-01T17:05:23.267Z,17.80
2022-10-01T17:07:51.069Z,17.30
2022-10-01T17:10:22.332Z,25.03
2022-10-01T17:12:50.597Z,49.57
2022-10-01T17:15:23.129Z,46.97
2022-10-01T17:17:52.372Z,26.13
2022-10-01T17:20:21.497Z,23.07
2022-10-01T17:22:49.374Z,21.50
2022-10-01T17:25:19.190Z,26.80
2022-10-01T17:27:47.370Z,32.20
2022-10-01T17:30:16.236Z,23.77
2022-10-01T17:32:44.815Z,20.27
2022-10-01T17:35:15.825Z,25.30
2022-10-01T17:37:44.000Z,25.93
2022-10-01T17:40:12.268Z,21.20
2022-10-01T17:42:40.398Z,21.90
2022-10-01T17:45:11.119Z,22.30
2022-10-01T17:47:44.720Z,21.33
2022-10-01T17:50:15.058Z,19.47
2022-10-01T17:52:43.281Z,19.90
2022-10-01T17:55:21.769Z,19.77
2022-10-01T17:57:49.566Z,20.50
2022-10-01T18:00:17.443Z,19.17
2022-10-01T18:02:45.423Z,18.20
2022-10-01T18:05:15.172Z,21.07
2022-10-01T18:07:43.701Z,21.47
2022-10-01T18:10:13.848Z,20.97
2022-10-01T18:12:42.350Z,17.47
2022-10-01T18:15:10.801Z,18.73
2022-10-01T18:17:43.527Z,19.10
2022-10-01T18:20:20.691Z,20.30
2022-10-01T18:22:48.812Z,21.73
2022-10-01T18:25:19.165Z,20.27
2022-10-01T18:27:49.944Z,20.77
2022-10-01T18:30:20.133Z,20.00
2022-10-01T18:32:56.631Z,19.43
2022-10-01T18:35:31.983Z,18.33
2022-10-01T18:38:04.341Z,16.27
2022-10-01T18:40:36.741Z,17.20
2022-10-01T18:43:09.386Z,16.53
2022-10-01T18:45:54.367Z,16.80
2022-10-01T18:48:44.231Z,16.60
2022-10-01T18:51:23.045Z,16.20
2022-10-01T18:54:06.916Z,14.50
2022-10-01T18:56:36.653Z,14.20
2022-10-01T18:59:27.491Z,13.93
2022-10-01T19:02:13.480Z,13.50
2022-10-01T19:05:01.531Z,13.20
2022-10-01T19:07:43.785Z,14.67
2022-10-01T19:10:20.112Z,15.00
2022-10-01T19:12:58.774Z,13.40
2022-10-01T19:15:37.738Z,11.97
2022-10-01T19:18:22.746Z,12.93
2022-10-01T19:21:04.323Z,9.73
2022-10-01T19:23:47.995Z,9.13
2022-10-01T19:26:25.148Z,7.63
2022-10-01T19:29:07.012Z,7.00
2022-10-01T19:31:44.171Z,6.40
2022-10-01T19:34:19.690Z,4.90
2022-10-01T19:36:54.624Z,5.97
2022-10-01T19:39:26.917Z,4.77
2022-10-01T19:41:58.721Z,4.13
2022-10-01T19:44:32.462Z,4.97
2022-10-01T19:47:20.545Z,4.43
2022-10-01T19:49:51.101Z,14.70
2022-10-01T19:52:21.134Z,8.40
2022-10-01T19:54:55.774Z,4.80
2022-10-01T19:57:25.965Z,4.97
2022-10-01T19:59:56.796Z,4.50
2022-10-01T20:02:33.652Z,4.20
2022-10-01T20:05:05.959Z,4.50
2022-10-01T20:07:40.204Z,4.77
2022-10-01T20:10:19.877Z,3.90
2022-10-01T20:12:56.559Z,3.97
2022-10-01T20:15:34.753Z,4.67
2022-10-01T20:18:14.614Z,3.80
2022-10-01T20:20:50.061Z,3.90
2022-10-01T20:23:40.150Z,4.03
2022-10-01T20:26:19.876Z,4.00
2022-10-01T20:29:10.277Z,3.60
2022-10-01T20:31:47.216Z,3.57
2022-10-01T20:34:27.454Z,7.67
2022-10-01T20:37:08.181Z,6.10
2022-10-01T20:39:41.066Z,5.33
2022-10-01T20:42:18.813Z,4.07
2022-10-01T20:44:46.869Z,3.33
2022-10-01T20:47:21.964Z,3.27
2022-10-01T20:49:56.709Z,3.50
2022-10-01T20:52:32.261Z,3.20
2022-10-01T20:55:05.973Z,3.47
2022-10-01T20:57:40.574Z,3.47
2022-10-01T21:00:19.221Z,3.73
2022-10-01T21:02:51.962Z,5.43
2022-10-01T21:05:23.907Z,4.57
2022-10-01T21:07:58.269Z,4.50
2022-10-01T21:10:36.465Z,4.00
2022-10-01T21:13:12.611Z,4.63
2022-10-01T21:15:51.954Z,4.47
2022-10-01T21:18:28.755Z,4.87
2022-10-01T21:21:09.219Z,3.97
2022-10-01T21:23:53.284Z,7.87
2022-10-01T21:26:27.042Z,5.90
2022-10-01T21:29:13.321Z,4.80
2022-10-01T21:31:50.587Z,3.73
2022-10-01T21:34:24.153Z,4.37
2022-10-01T21:37:05.029Z,4.93
2022-10-01T21:39:37.477Z,4.60
2022-10-01T21:42:15.181Z,3.60
2022-10-01T21:45:06.856Z,3.40
2022-10-01T21:47:50.435Z,4.53
2022-10-01T21:50:27.603Z,5.20
2022-10-01T21:53:11.998Z,4.40
2022-10-01T21:55:51.927Z,5.40
2022-10-01T21:58:36.493Z,6.10
2022-10-01T22:01:17.540Z,3.47
2022-10-01T22:03:50.737Z,2.87
2022-10-01T22:06:25.406Z,3.20
2022-10-01T22:09:01.986Z,2.20
2022-10-01T22:11:32.590Z,2.40
2022-10-01T22:14:03.632Z,2.27
2022-10-01T22:16:39.755Z,2.37
2022-10-01T22:19:12.450Z,1.97
2022-10-01T22:21:44.547Z,2.20
2022-10-01T22:24:15.509Z,2.47
2022-10-01T22:26:48.014Z,2.20
2022-10-01T22:29:19.346Z,2.37
2022-10-01T22:31:52.627Z,2.10
2022-10-01T22:34:24.192Z,2.13
2022-10-01T22:36:58.173Z,2.00
2022-10-01T22:39:28.044Z,2.30
2022-10-01T22:42:02.240Z,2.90
2022-10-01T22:44:30.569Z,2.10
2022-10-01T22:47:30.412Z,2.43
2022-10-01T22:50:15.490Z,2.33
2022-10-01T22:52:54.935Z,2.20
2022-10-01T22:55:31.593Z,2.30
2022-10-01T22:58:14.430Z,2.63
2022-10-01T23:00:49.105Z,2.37
2022-10-01T23:03:23.893Z,2.50
2022-10-01T23:06:03.645Z,2.37
2022-10-01T23:08:39.257Z,2.60
2022-10-01T23:11:23.302Z,2.03
2022-10-01T23:14:02.669Z,2.20
2022-10-01T23:16:44.228Z,2.60
2022-10-01T23:19:28.057Z,2.90
2022-10-01T23:22:05.372Z,3.20
2022-10-01T23:24:47.697Z,3.20
2022-10-01T23:27:26.453Z,2.33
2022-10-01T23:30:03.780Z,3.00
2022-10-01T23:32:56.085Z,2.43
2022-10-01T23:35:33.245Z,2.30
2022-10-01T23:38:22.642Z,2.47
2022-10-01T23:40:51.805Z,2.40
2022-10-01T23:43:27.154Z,2.20
2022-10-01T23:46:01.071Z,2.40
2022-10-01T23:48:34.876Z,2.50
2022-10-01T23:51:08.749Z,2.77
2022-10-01T23:53:41.443Z,2.40
2022-10-01T23:56:32.503Z,2.47
2022-10-01T23:59:05.412Z,2.30
